Medford, OR

5:46 PM PDT on October 24, 2014 (GMT -0700)
Klamath Falls International | Change Station
CLOSE
Current Station
Airport
Location: Klamath Falls,
Elevation: 4091 ft
Nearby Weather Stations
Active Advisory: Wind Advisory

Elev 4091 ft 42.15 °N, 121.72 °W | Updated 53 minutes ago

Clear
Clear
60 °F
Feels Like 60 °F
N
30
Wind Variable Wind from South
Gusts 37 mph

Today
High -- | Low -- °F
--% Chance of Precip.
Yesterday
High -- | Low -- °F
Precip. -- in
7:35 AM 6:15 PM
New Moon, 1% visible
Pressure 29.82 in
Visibility 10.0 miles
Clouds Clear
Dew Point 38 °F
Humidity 44%
Rainfall 0.20 in
Snow Depth 0 in
UV 1 out of 12
Pollen .40 out of 12
Air Quality Not available.
Flu Activity Sporadic
METAR KLMT 242353Z 18026G32KT 10SM CLR 16/03 A2987 RMK AO2 PK WND 18034/2328 SLP097 T01560033 10172 20122 58016

More Conditions Fewer Conditions

Pressure 29.82 in
Visibility 10.0 miles
Clouds Clear
Dew Point 38 °F
Humidity 44%
Rainfall 0.20 in
Snow Depth 0 in
UV 1 out of 12
Pollen .40 out of 12
Air Quality Not available.
Flu Activity Sporadic
METAR KLMT 242353Z 18026G32KT 10SM CLR 16/03 A2987 RMK AO2 PK WND 18034/2328 SLP097 T01560033 10172 20122 58016

More Conditions Fewer Conditions

10-Day Weather Forecast

Almanac

Astronomy

Oct. 24, 2014 Rise Set
Actual Time 7:35 AM PDT 6:15 PM PDT
Civil Twilight 7:06 AM PDT 6:44 PM PDT
Nautical Twilight 6:33 AM PDT 7:17 PM PDT
Astronomical Twilight 6:01 AM PDT 7:49 PM PDT
Moon 8:20 AM PDT (10/24) 6:58 PM PDT (10/24)
Length of Visible Light 11h 37m
Length of Day
10h 40m
Tomorrow will be 2m 38s shorter.
New Moon, 1% of the Moon is Illuminated
Today
New Moon
Oct 30
First Quarter
Nov 6
Full
Nov 14
Last Quarter
Nov 22
New

Today's Extremes

State Highs State Lows

Community

WunderPhotos

Upload Photos

1,764,735 photos uploaded!

WunderBlogs® & News

Nearby

Snow Depth

Station Depth Elevation
Big Red Mountain 0 in 6250 ft
Fish Lake 0 in 4665 ft
Cold Springs Camp 0 in 6100 ft
Sevenmile Marsh 0 in 6200 ft
Annie Springs 0 in 6020 ft

Earthquake Activity

City Distance Mag. Time & Date
No recent earthquake activity has been reported nearby.
Minimum magnitude displayed is 2.5.

Coastal Water Temperatures

Place Temperature
No Stations Reporting

Nearby Weather Stations